Lake Hughes, California
Current Conditions -  °F | °C
As of 1:56 AM on Saturday 01 Nov 2014 (Local Time) from KWJF Reporting Station
Light Rain Light Rain  
Wind Chill: 50°   Ceiling: 2600
Heat Index: 50°   Visibility: 10mi
Dew Point: 47°   Wind: 9mph
Humidity: 89%   Direction: 290°WNW
Pressure: 29.82"   Gusts: NA
Location:  34.68°N, 118.45°W
Report Text: KWJF 010856Z 29008KT 10SM -RA SCT020 BKN026 OVC042 10/08 A2982 RMK AO2 SLP093 P0006 60019 T01000083 50012
Loading
Personal Weather Stations






























Interactive Weather Map
Tropical Storm Tracking
New forecast layout! Learn more

10-Day Weather Forecast

Advertisements
Track Severe Weather on mobile